Time;durP1;ratioP1;P1;durP2;ratioP2;P2;SDS_P1;SDS_P2;PMS_P1;PMS_P2;Temp;Humidity;BMP_temperature;BMP_pressure;BME280_temperature;BME280_humidity;BME280_pressure;Samples;Min_cycle;Max_cycle;Signal;HPM_P1;HPM_P2
2023/03/25 00:00:14;;;;;;;1.43;1.27;;;;;;;5.97;100.00;95588.25;5056983;28;20455;-76
2023/03/25 00:02:43;;;;;;;3.17;1.97;;;;;;;5.78;100.00;95570.22;5067725;28;20514;-76
2023/03/25 00:05:13;;;;;;;3.47;1.30;;;;;;;5.32;100.00;95546.28;5070176;28;20463;-76
2023/03/25 00:07:45;;;;;;;1.30;1.10;;;;;;;5.63;100.00;95540.03;5063755;28;20504;-76
2023/03/25 00:10:12;;;;;;;1.20;1.03;;;;;;;5.96;100.00;95565.72;5075917;28;20470;-76
2023/03/25 00:12:41;;;;;;;2.80;1.47;;;;;;;5.75;100.00;95561.13;5081632;28;20527;-76
2023/03/25 00:15:10;;;;;;;1.27;1.17;;;;;;;5.60;100.00;95536.16;5076671;28;20933;-76
2023/03/25 00:17:37;;;;;;;1.93;1.20;;;;;;;5.82;100.00;95552.78;5091784;28;20453;-76
2023/03/25 00:20:09;;;;;;;1.73;1.07;;;;;;;5.73;100.00;95518.69;5082133;28;20494;-76
2023/03/25 00:22:39;;;;;;;2.40;1.50;;;;;;;5.67;100.00;95542.81;5066407;28;20427;-76
2023/03/25 00:25:08;;;;;;;1.03;1.03;;;;;;;5.53;100.00;95514.94;5076821;28;21000;-76
2023/03/25 00:27:35;;;;;;;1.70;1.60;;;;;;;5.72;100.00;95508.53;5059844;28;20965;-76
2023/03/25 00:30:03;;;;;;;1.57;1.17;;;;;;;5.92;100.00;95528.84;5093729;28;20499;-76
2023/03/25 00:32:30;;;;;;;1.47;0.90;;;;;;;5.85;100.00;95494.44;5097787;28;20419;-76
2023/03/25 00:34:58;;;;;;;0.80;0.80;;;;;;;5.92;100.00;95497.38;5086369;28;20419;-76
2023/03/25 00:37:26;;;;;;;0.80;0.80;;;;;;;6.00;100.00;95509.66;5084505;28;20432;-77
2023/03/25 00:39:52;;;;;;;1.47;1.00;;;;;;;6.00;100.00;95508.91;5073228;28;20482;-77
2023/03/25 00:42:24;;;;;;;1.00;0.90;;;;;;;6.14;100.00;95519.94;5092666;28;20484;-77
2023/03/25 00:44:53;;;;;;;1.90;0.90;;;;;;;6.06;100.00;95510.28;5102881;28;20450;-76
2023/03/25 00:47:21;;;;;;;2.80;0.90;;;;;;;6.11;100.00;95515.31;5085690;28;20477;-76
2023/03/25 00:49:48;;;;;;;1.53;1.23;;;;;;;6.16;100.00;95538.78;5062474;28;20447;-76
2023/03/25 00:52:17;;;;;;;4.53;1.10;;;;;;;6.11;100.00;95526.59;5077260;28;20837;-76
2023/03/25 00:54:44;;;;;;;1.20;1.10;;;;;;;5.87;100.00;95513.25;5083763;28;20450;-76
2023/03/25 00:57:11;;;;;;;3.70;1.43;;;;;;;5.76;100.00;95509.47;5086866;28;20431;-76
2023/03/25 00:59:38;;;;;;;2.10;1.40;;;;;;;5.76;100.00;95504.22;5074885;28;20510;-77
2023/03/25 01:02:05;;;;;;;1.63;1.53;;;;;;;5.54;100.00;95463.25;5077015;28;20434;-76
2023/03/25 01:04:34;;;;;;;2.47;1.53;;;;;;;5.63;100.00;95477.88;5068570;28;21008;-76
2023/03/25 01:07:02;;;;;;;1.90;1.53;;;;;;;5.31;100.00;95434.66;5062481;28;20828;-76
2023/03/25 01:09:29;;;;;;;2.20;1.77;;;;;;;5.57;100.00;95452.13;5084655;28;20439;-76
2023/03/25 01:11:57;;;;;;;1.47;1.37;;;;;;;5.39;100.00;95434.97;5073318;28;20482;-76
2023/03/25 01:14:26;;;;;;;2.60;1.27;;;;;;;5.46;100.00;95429.97;5094657;28;20427;-76
2023/03/25 01:16:56;;;;;;;1.33;1.10;;;;;;;5.59;100.00;95445.50;5083472;28;20436;-76
2023/03/25 01:19:23;;;;;;;2.53;1.43;;;;;;;5.27;100.00;95402.31;5069910;28;20474;-77
2023/03/25 01:21:52;;;;;;;1.23;1.13;;;;;;;5.42;100.00;95429.84;5094498;28;20451;-76
2023/03/25 01:24:19;;;;;;;2.73;2.03;;;;;;;5.35;100.00;95426.97;5081726;28;20513;-76
2023/03/25 01:26:46;;;;;;;1.43;1.30;;;;;;;5.24;100.00;95449.34;5071828;28;21096;-77
2023/03/25 01:29:16;;;;;;;1.70;1.60;;;;;;;5.14;100.00;95442.59;5087964;28;20857;-76
2023/03/25 01:31:43;;;;;;;1.80;1.50;;;;;;;5.12;100.00;95417.78;5094336;28;20479;-77
2023/03/25 01:34:11;;;;;;;7.10;3.30;;;;;;;5.20;100.00;95433.47;5094479;28;20514;-76
2023/03/25 01:36:45;;;;;;;3.23;2.10;;;;;;;5.04;100.00;95414.88;5067156;28;20981;-76
2023/03/25 01:39:17;;;;;;;4.87;3.30;;;;;;;5.32;100.00;95453.78;5073396;28;20427;-76
2023/03/25 01:41:46;;;;;;;3.33;2.37;;;;;;;5.31;100.00;95453.00;5068411;28;20495;-76
2023/03/25 01:44:20;;;;;;;4.13;2.17;;;;;;;4.78;100.00;95369.66;5073595;28;20869;-76
2023/03/25 01:46:51;;;;;;;3.53;2.60;;;;;;;5.00;100.00;95398.25;5085408;28;20431;-76
2023/03/25 01:49:43;;;;;;;2.50;2.30;;;;;;;5.29;100.00;95434.22;5080535;28;20423;-76
2023/03/25 01:52:22;;;;;;;5.40;2.63;;;;;;;5.22;100.00;95414.84;5079212;28;20924;-76
2023/03/25 01:54:52;;;;;;;10.13;2.20;;;;;;;5.40;100.00;95426.00;5063870;28;20479;-76
2023/03/25 01:57:21;;;;;;;3.33;1.87;;;;;;;5.44;100.00;95424.28;5106829;28;20435;-76
2023/03/25 01:59:49;;;;;;;1.67;1.50;;;;;;;5.53;100.00;95419.78;5063334;28;20436;-76
2023/03/25 02:02:17;;;;;;;2.80;1.87;;;;;;;5.85;100.00;95445.38;5071991;28;20459;-76
2023/03/25 02:05:02;;;;;;;1.70;1.47;;;;;;;5.82;100.00;95430.28;5085482;28;20459;-76
2023/03/25 02:07:41;;;;;;;2.07;1.90;;;;;;;5.47;100.00;95364.13;5075326;28;20534;-76
2023/03/25 02:10:11;;;;;;;2.27;1.83;;;;;;;5.99;100.00;95428.66;5071931;28;20459;-76
2023/03/25 02:12:39;;;;;;;2.07;1.80;;;;;;;5.71;100.00;95379.28;5058576;28;20473;-75
2023/03/25 02:15:09;;;;;;;1.83;1.57;;;;;;;5.81;100.00;95375.50;5089316;28;20415;-76
2023/03/25 02:17:41;;;;;;;2.13;1.50;;;;;;;6.17;100.00;95432.72;5075426;28;20953;-76
2023/03/25 02:20:36;;;;;;;2.20;2.00;;;;;;;6.26;100.00;95437.88;5071866;28;20462;-76
2023/03/25 02:23:40;;;;;;;2.60;2.30;;;;;;;6.30;100.00;95436.19;5091999;28;20466;-76
2023/03/25 02:26:40;;;;;;;3.47;2.70;;;;;;;6.35;100.00;95439.38;5080635;28;20829;-78
2023/03/25 02:29:16;;;;;;;4.77;2.07;;;;;;;6.02;100.00;95391.31;5096732;28;20430;-78
2023/03/25 02:31:52;;;;;;;5.07;2.10;;;;;;;6.38;100.00;95438.72;5091668;28;20557;-78
2023/03/25 02:34:34;;;;;;;6.20;2.17;;;;;;;6.40;100.00;95433.16;5095391;28;20461;-78
2023/03/25 02:37:32;;;;;;;2.10;1.90;;;;;;;6.15;100.00;95400.78;5100415;28;20437;-78
2023/03/25 02:40:09;;;;;;;2.60;1.73;;;;;;;6.36;100.00;95429.63;5100141;28;20463;-78
2023/03/25 02:43:00;;;;;;;1.87;1.60;;;;;;;6.13;100.00;95395.84;5114098;28;20415;-78
2023/03/25 02:45:34;;;;;;;2.17;1.97;;;;;;;6.23;100.00;95407.81;5079617;28;20459;-78
2023/03/25 02:48:09;;;;;;;2.80;2.07;;;;;;;5.51;100.00;95311.88;5078335;28;20867;-78
2023/03/25 02:50:45;;;;;;;3.60;2.40;;;;;;;6.11;100.00;95390.13;5077809;28;20461;-78
2023/03/25 02:53:21;;;;;;;3.00;1.37;;;;;;;6.25;100.00;95424.00;5070147;28;20423;-77
2023/03/25 02:55:50;;;;;;;1.70;1.30;;;;;;;6.28;100.00;95433.88;5085104;28;20455;-77
2023/03/25 02:58:20;;;;;;;1.50;1.40;;;;;;;6.35;100.00;95446.47;5071138;28;20431;-78
2023/03/25 03:00:49;;;;;;;4.93;2.23;;;;;;;6.29;100.00;95443.28;5065196;28;20447;-78
2023/03/25 03:03:16;;;;;;;2.90;1.43;;;;;;;6.14;100.00;95417.59;5072551;28;20467;-78
2023/03/25 03:05:50;;;;;;;3.40;1.73;;;;;;;6.30;100.00;95446.69;5078261;28;20543;-78
2023/03/25 03:08:41;;;;;;;1.40;1.30;;;;;;;6.31;100.00;95454.22;5089971;28;20435;-78
2023/03/25 03:11:20;;;;;;;2.60;2.40;;;;;;;6.12;100.00;95430.25;5096317;28;20482;-78
2023/03/25 03:14:18;;;;;;;3.93;1.20;;;;;;;6.29;100.00;95459.03;5065285;28;20506;-78
2023/03/25 03:16:59;;;;;;;2.60;1.67;;;;;;;6.27;100.00;95450.69;5086774;28;20420;-78
2023/03/25 03:19:58;;;;;;;1.27;1.17;;;;;;;6.29;100.00;95453.03;5085662;28;20430;-77
2023/03/25 03:23:00;;;;;;;4.63;1.93;;;;;;;6.16;100.00;95433.81;5086206;28;20430;-78
2023/03/25 03:25:46;;;;;;;1.60;1.50;;;;;;;6.03;100.00;95416.47;5113038;28;20466;-78
2023/03/25 03:28:44;;;;;;;7.20;1.53;;;;;;;6.11;100.00;95431.34;5115979;28;20446;-78
2023/03/25 03:31:26;;;;;;;3.43;1.40;;;;;;;6.08;100.00;95432.78;5053558;28;20458;-78
2023/03/25 03:34:21;;;;;;;1.57;1.17;;;;;;;6.33;100.00;95464.41;5101253;28;20419;-78
2023/03/25 03:36:51;;;;;;;3.13;1.70;;;;;;;6.29;100.00;95456.41;5097079;28;20536;-77
2023/03/25 03:39:30;;;;;;;1.30;1.20;;;;;;;5.63;100.00;95377.47;5079933;28;20533;-78
2023/03/25 03:42:03;;;;;;;1.70;1.43;;;;;;;5.93;100.00;95434.09;5057023;28;20483;-78
2023/03/25 03:44:34;;;;;;;1.97;1.50;;;;;;;6.26;100.00;95480.66;5081038;28;20480;-77
2023/03/25 03:47:09;;;;;;;1.93;1.73;;;;;;;5.84;100.00;95414.97;5066448;28;20471;-78
2023/03/25 03:49:47;;;;;;;2.97;1.13;;;;;;;6.19;100.00;95472.53;5060224;28;20948;-78
2023/03/25 03:52:20;;;;;;;3.33;1.43;;;;;;;6.16;100.00;95470.56;5076803;28;21001;-78
2023/03/25 03:54:51;;;;;;;2.87;1.87;;;;;;;6.05;100.00;95457.03;5094905;28;20836;-78
2023/03/25 03:57:21;;;;;;;2.97;1.30;;;;;;;5.77;100.00;95425.22;5076713;28;20431;-78
2023/03/25 04:00:07;;;;;;;2.27;1.67;;;;;;;6.15;100.00;95480.28;5060341;28;20419;-78
2023/03/25 04:02:41;;;;;;;1.53;1.40;;;;;;;6.06;100.00;95461.19;5076783;28;20436;-78
2023/03/25 04:05:12;;;;;;;3.80;1.37;;;;;;;6.18;100.00;95484.88;5076608;28;20458;-78
2023/03/25 04:07:44;;;;;;;1.70;1.60;;;;;;;6.07;100.00;95469.81;5076723;28;20583;-78
2023/03/25 04:10:17;;;;;;;5.63;1.50;;;;;;;5.93;100.00;95460.34;5069322;28;20478;-77
2023/03/25 04:12:49;;;;;;;1.57;1.37;;;;;;;5.79;100.00;95446.66;5081012;28;20414;-78
2023/03/25 04:15:17;;;;;;;3.20;2.80;;;;;;;5.96;100.00;95476.50;5096908;28;20419;-78
2023/03/25 04:17:44;;;;;;;3.37;1.40;;;;;;;5.86;100.00;95441.66;5083653;28;20431;-78
2023/03/25 04:20:22;;;;;;;1.67;1.37;;;;;;;6.28;100.00;95503.94;5083070;28;20460;-78
2023/03/25 04:22:53;;;;;;;1.77;1.17;;;;;;;6.14;100.00;95491.88;5054924;28;21037;-78
2023/03/25 04:25:20;;;;;;;5.87;1.90;;;;;;;5.69;100.00;95423.41;5071143;28;20463;-78
2023/03/25 04:27:47;;;;;;;3.93;1.57;;;;;;;5.99;100.00;95475.88;5076233;28;20514;-78
2023/03/25 04:30:18;;;;;;;9.43;3.13;;;;;;;6.13;100.00;95498.16;5064771;28;20479;-77
2023/03/25 04:32:46;;;;;;;3.13;1.33;;;;;;;6.10;100.00;95498.03;5079706;28;20493;-78
2023/03/25 04:35:14;;;;;;;2.60;1.43;;;;;;;5.90;100.00;95463.59;5079349;28;20439;-78
2023/03/25 04:37:44;;;;;;;4.97;3.10;;;;;;;5.79;100.00;95441.41;5098150;28;20458;-78
2023/03/25 04:40:15;;;;;;;2.90;1.50;;;;;;;6.12;100.00;95482.75;5079781;28;20443;-77
2023/03/25 04:42:42;;;;;;;2.10;1.10;;;;;;;5.88;100.00;95451.84;5102372;28;20774;-77
2023/03/25 04:45:13;;;;;;;8.63;1.60;;;;;;;5.99;100.00;95473.25;5088632;28;20504;-77
2023/03/25 04:47:43;;;;;;;6.33;1.40;;;;;;;5.89;100.00;95459.41;5081730;28;20423;-77
2023/03/25 04:50:21;;;;;;;6.13;1.40;;;;;;;5.91;100.00;95465.13;5074178;28;20558;-77
2023/03/25 04:52:50;;;;;;;3.00;1.30;;;;;;;5.68;100.00;95424.50;5068267;28;20434;-77
2023/03/25 04:55:18;;;;;;;2.83;1.47;;;;;;;6.00;100.00;95467.69;5063223;28;20522;-77
2023/03/25 04:57:50;;;;;;;3.37;1.43;;;;;;;5.97;100.00;95470.94;5080220;28;20526;-77
2023/03/25 05:00:23;;;;;;;3.80;1.33;;;;;;;5.92;100.00;95473.75;5079367;28;20459;-77
2023/03/25 05:02:54;;;;;;;3.10;1.43;;;;;;;5.88;100.00;95470.22;5086558;28;20437;-77
2023/03/25 05:05:23;;;;;;;2.27;2.07;;;;;;;5.87;100.00;95472.03;5067650;28;20459;-77
2023/03/25 05:07:52;;;;;;;1.33;1.00;;;;;;;5.86;100.00;95473.13;5071567;28;20945;-77
2023/03/25 05:10:22;;;;;;;2.00;1.53;;;;;;;5.85;100.00;95466.34;5072620;28;20458;-78
2023/03/25 05:12:49;;;;;;;3.53;2.30;;;;;;;5.66;100.00;95452.88;5118418;28;20431;-77
2023/03/25 05:15:16;;;;;;;3.30;1.13;;;;;;;5.75;100.00;95476.44;5099098;28;20472;-77
2023/03/25 05:17:43;;;;;;;2.43;2.23;;;;;;;5.46;100.00;95432.59;5099824;28;20434;-78
2023/03/25 05:20:11;;;;;;;2.77;1.53;;;;;;;5.41;100.00;95444.03;5111572;28;20451;-77
2023/03/25 05:22:38;;;;;;;1.40;1.10;;;;;;;5.68;100.00;95490.03;5062999;28;20451;-77
2023/03/25 05:25:06;;;;;;;1.47;0.90;;;;;;;5.45;100.00;95452.81;5079463;28;21051;-77
2023/03/25 05:27:34;;;;;;;3.90;1.30;;;;;;;5.56;100.00;95466.34;5097886;28;20431;-77
2023/03/25 05:30:02;;;;;;;3.33;1.30;;;;;;;5.23;100.00;95414.53;5079702;28;20526;-77
2023/03/25 05:32:32;;;;;;;1.00;0.73;;;;;;;5.60;100.00;95462.00;5059984;28;20440;-77
2023/03/25 05:35:00;;;;;;;1.60;1.10;;;;;;;5.70;100.00;95480.00;5083225;28;20440;-77
2023/03/25 05:37:27;;;;;;;2.50;2.30;;;;;;;5.55;100.00;95456.94;5090492;28;20911;-77
2023/03/25 05:39:54;;;;;;;7.13;1.83;;;;;;;5.68;100.00;95476.94;5117939;28;20965;-77
2023/03/25 05:42:21;;;;;;;2.03;1.10;;;;;;;5.73;100.00;95479.38;5099870;28;20484;-77
2023/03/25 05:44:52;;;;;;;1.27;1.17;;;;;;;5.72;100.00;95487.56;5091004;28;20428;-77
2023/03/25 05:47:22;;;;;;;1.77;1.33;;;;;;;5.70;100.00;95474.75;5075659;28;21007;-77
2023/03/25 05:49:51;;;;;;;42.00;27.40;;;;;;;5.74;100.00;95465.16;5062122;28;20428;-77
2023/03/25 05:52:18;;;;;;;8.17;6.43;;;;;;;5.79;100.00;95488.63;5076044;28;20439;-77
2023/03/25 05:54:49;;;;;;;4.60;2.70;;;;;;;5.46;100.00;95443.09;5062467;28;20500;-78
2023/03/25 05:57:16;;;;;;;2.20;1.20;;;;;;;5.71;100.00;95497.28;5079645;28;20438;-78
2023/03/25 05:59:43;;;;;;;3.37;1.73;;;;;;;5.54;100.00;95471.91;5078785;28;20455;-78
2023/03/25 06:02:13;;;;;;;2.17;1.03;;;;;;;5.69;100.00;95509.94;5097958;28;20831;-78
2023/03/25 06:04:41;;;;;;;3.70;1.90;;;;;;;5.33;100.00;95453.47;5078786;28;20522;-77
2023/03/25 06:07:13;;;;;;;3.00;1.43;;;;;;;5.53;100.00;95480.09;5062040;28;20479;-77
2023/03/25 06:09:44;;;;;;;1.33;1.17;;;;;;;5.63;100.00;95506.72;5090082;28;20428;-78
2023/03/25 06:12:18;;;;;;;1.33;1.20;;;;;;;5.66;100.00;95520.28;5092474;28;20416;-77
2023/03/25 06:14:46;;;;;;;3.50;1.23;;;;;;;5.66;100.00;95533.41;5092881;28;20431;-77
2023/03/25 06:17:17;;;;;;;4.00;1.47;;;;;;;5.41;100.00;95504.31;5098499;28;20435;-77
2023/03/25 06:19:44;;;;;;;4.70;1.60;;;;;;;5.28;100.00;95497.41;5114182;28;20455;-78
2023/03/25 06:22:11;;;;;;;1.20;1.00;;;;;;;5.55;100.00;95546.84;5078169;28;20469;-77
2023/03/25 06:24:39;;;;;;;1.37;1.00;;;;;;;5.53;100.00;95546.38;5078821;28;20459;-78
2023/03/25 06:27:08;;;;;;;1.77;1.63;;;;;;;5.54;100.00;95555.78;5106383;28;20529;-78
2023/03/25 06:29:36;;;;;;;1.13;0.83;;;;;;;5.46;100.00;95537.44;5081723;28;20465;-77
2023/03/25 06:32:03;;;;;;;2.90;1.23;;;;;;;5.23;100.00;95511.47;5076877;28;20527;-77
2023/03/25 06:34:31;;;;;;;1.37;1.27;;;;;;;5.49;100.00;95557.81;5092793;28;20462;-77
2023/03/25 06:37:00;;;;;;;1.40;1.10;;;;;;;5.39;100.00;95542.41;5115932;28;20425;-78
2023/03/25 06:39:30;;;;;;;1.90;1.10;;;;;;;5.42;100.00;95562.75;5092821;28;20435;-77
2023/03/25 06:41:59;;;;;;;2.40;1.90;;;;;;;5.41;100.00;95572.47;5069953;28;20459;-77
2023/03/25 06:44:40;;;;;;;1.67;1.30;;;;;;;4.92;100.00;95508.25;5064434;28;20539;-77
2023/03/25 06:47:36;;;;;;;1.20;1.10;;;;;;;5.09;100.00;95539.69;5077582;28;20432;-77
2023/03/25 06:50:03;;;;;;;2.27;1.57;;;;;;;5.10;100.00;95546.47;5078115;28;20471;-78
2023/03/25 06:52:30;;;;;;;4.83;1.60;;;;;;;5.07;100.00;95536.59;5072028;28;20433;-77
2023/03/25 06:54:57;;;;;;;1.60;1.50;;;;;;;5.21;100.00;95560.78;5071319;28;20446;-77
2023/03/25 06:57:23;;;;;;;1.10;1.00;;;;;;;5.36;100.00;95569.25;5058003;28;20863;-77
2023/03/25 06:59:50;;;;;;;1.57;1.10;;;;;;;5.12;100.00;95540.91;5070505;28;20485;-77
2023/03/25 07:02:16;;;;;;;1.93;1.33;;;;;;;4.99;100.00;95513.81;5080641;28;20932;-77
2023/03/25 07:04:43;;;;;;;1.30;1.20;;;;;;;5.14;100.00;95547.38;5086863;28;20975;-77
2023/03/25 07:07:10;;;;;;;1.73;1.10;;;;;;;5.26;100.00;95549.38;5076820;28;20471;-77
2023/03/25 07:09:37;;;;;;;3.23;1.23;;;;;;;5.33;100.00;95549.66;5076816;28;20428;-78
2023/03/25 07:12:04;;;;;;;1.80;1.10;;;;;;;5.52;100.00;95570.28;5060797;28;20459;-78
2023/03/25 07:14:34;;;;;;;1.73;1.23;;;;;;;5.12;100.00;95507.63;5060981;28;20461;-77
2023/03/25 07:17:01;;;;;;;3.03;1.20;;;;;;;5.40;100.00;95546.56;5094739;28;20928;-78
2023/03/25 07:19:27;;;;;;;1.33;1.17;;;;;;;5.28;100.00;95513.91;5096200;28;20453;-77
2023/03/25 07:21:54;;;;;;;1.23;1.07;;;;;;;5.34;100.00;95532.84;5080151;28;20571;-77
2023/03/25 07:24:21;;;;;;;1.33;1.23;;;;;;;5.43;100.00;95535.47;5082394;28;20488;-77
2023/03/25 07:26:47;;;;;;;3.13;1.30;;;;;;;5.47;100.00;95542.38;5089569;28;20801;-78
2023/03/25 07:29:16;;;;;;;1.53;1.23;;;;;;;5.36;100.00;95519.47;5059898;28;20488;-77
2023/03/25 07:31:43;;;;;;;2.40;2.20;;;;;;;5.88;100.00;95578.53;5095022;28;20454;-78
2023/03/25 07:34:09;;;;;;;1.37;1.10;;;;;;;5.77;100.00;95552.97;5087684;28;20534;-77
2023/03/25 07:36:36;;;;;;;3.13;1.73;;;;;;;5.69;100.00;95517.03;5076497;28;20415;-78
2023/03/25 07:39:06;;;;;;;1.97;0.90;;;;;;;5.73;100.00;95537.06;5087446;28;20530;-78
2023/03/25 07:41:33;;;;;;;2.90;1.33;;;;;;;6.04;100.00;95570.16;5080229;28;20874;-77
2023/03/25 07:44:08;;;;;;;2.70;1.00;;;;;;;6.02;100.00;95556.59;5077398;28;20446;-77
2023/03/25 07:46:36;;;;;;;1.77;1.00;;;;;;;5.76;100.00;95528.59;5064226;28;20516;-77
2023/03/25 07:49:05;;;;;;;1.90;1.30;;;;;;;5.77;100.00;95558.97;5101576;28;20419;-76
2023/03/25 07:51:33;;;;;;;0.80;0.80;;;;;;;5.63;100.00;95553.16;5053473;28;20502;-76
2023/03/25 07:54:08;;;;;;;1.63;1.17;;;;;;;5.54;100.00;95537.44;5073716;28;20407;-77
2023/03/25 07:56:35;;;;;;;0.80;0.80;;;;;;;5.93;100.00;95588.88;5061646;28;20448;-76
2023/03/25 07:59:02;;;;;;;1.40;0.90;;;;;;;5.88;100.00;95594.28;5090171;28;20877;-77
2023/03/25 08:01:29;;;;;;;4.53;1.17;;;;;;;5.93;100.00;95583.63;5083174;28;20447;-76
2023/03/25 08:03:56;;;;;;;2.13;1.00;;;;;;;5.56;100.00;95534.50;5091429;28;20812;-77
2023/03/25 08:06:23;;;;;;;3.90;1.30;;;;;;;5.75;100.00;95557.75;5080346;28;20458;-77
2023/03/25 08:08:50;;;;;;;2.60;1.10;;;;;;;5.86;100.00;95564.94;5092154;28;20518;-77
2023/03/25 08:11:16;;;;;;;1.80;1.20;;;;;;;5.99;100.00;95578.19;5095741;28;20443;-76
2023/03/25 08:13:43;;;;;;;3.20;1.40;;;;;;;5.86;100.00;95562.31;5067566;28;20504;-77
2023/03/25 08:16:14;;;;;;;3.47;2.60;;;;;;;6.00;100.00;95575.25;5083827;28;20431;-77
2023/03/25 08:18:43;;;;;;;10.10;6.07;;;;;;;6.00;100.00;95567.38;5089891;28;20564;-77
2023/03/25 08:21:12;;;;;;;2.67;1.20;;;;;;;6.13;100.00;95582.16;5089212;28;20513;-77
2023/03/25 08:23:39;;;;;;;3.23;1.60;;;;;;;6.04;100.00;95575.41;5066080;28;20521;-77
2023/03/25 08:26:06;;;;;;;5.40;1.70;;;;;;;5.78;100.00;95523.03;5063830;28;20833;-77
2023/03/25 08:28:33;;;;;;;6.00;2.37;;;;;;;6.14;100.00;95561.91;5088531;28;20420;-77
2023/03/25 08:31:05;;;;;;;3.43;1.33;;;;;;;6.38;100.00;95601.50;5089491;28;20443;-76
2023/03/25 08:33:33;;;;;;;3.23;2.80;;;;;;;6.26;100.00;95569.13;5095313;28;20541;-77
2023/03/25 08:36:00;;;;;;;2.47;2.27;;;;;;;6.18;100.00;95554.97;5095180;28;20419;-77
2023/03/25 08:38:30;;;;;;;1.53;1.20;;;;;;;5.86;100.00;95503.84;5066628;28;20432;-77
2023/03/25 08:41:00;;;;;;;1.57;1.20;;;;;;;6.52;100.00;95596.78;5092830;28;20439;-77
2023/03/25 08:43:27;;;;;;;1.90;1.00;;;;;;;6.59;100.00;95588.41;5084979;28;20423;-76
2023/03/25 08:45:53;;;;;;;3.90;1.60;;;;;;;6.47;100.00;95572.56;5080092;28;20459;-77
2023/03/25 08:48:21;;;;;;;3.77;1.20;;;;;;;6.74;100.00;95595.72;5094945;28;20804;-77
2023/03/25 08:50:48;;;;;;;3.77;1.47;;;;;;;6.60;100.00;95547.16;5078223;28;21045;-77
2023/03/25 08:53:15;;;;;;;4.57;1.30;;;;;;;6.87;100.00;95583.44;5085341;28;20423;-77
2023/03/25 08:55:41;;;;;;;1.60;1.20;;;;;;;6.80;100.00;95604.19;5089983;28;20534;-76
2023/03/25 08:58:08;;;;;;;2.03;1.40;;;;;;;6.52;100.00;95556.63;5068943;28;20797;-77
2023/03/25 09:00:36;;;;;;;3.77;2.70;;;;;;;6.84;100.00;95597.22;5049783;28;20459;-77
2023/03/25 09:03:04;;;;;;;1.47;1.30;;;;;;;6.90;100.00;95598.56;5094924;28;20535;-77
2023/03/25 09:05:31;;;;;;;2.13;1.13;;;;;;;6.66;100.00;95572.13;5090305;28;20445;-77
2023/03/25 09:07:57;;;;;;;5.70;1.70;;;;;;;6.66;100.00;95580.00;5089242;28;20474;-77
2023/03/25 09:10:24;;;;;;;5.37;1.70;;;;;;;6.58;100.00;95570.34;5108839;28;20534;-77
2023/03/25 09:12:51;;;;;;;1.33;0.90;;;;;;;6.44;100.00;95552.97;5089560;28;20517;-77
2023/03/25 09:15:18;;;;;;;3.70;1.77;;;;;;;6.49;100.00;95575.63;5079600;28;20898;-77
2023/03/25 09:17:45;;;;;;;1.87;1.10;;;;;;;6.61;100.00;95591.50;5083524;28;20435;-77
2023/03/25 09:20:12;;;;;;;7.63;2.47;;;;;;;6.61;100.00;95591.50;5089453;28;20972;-77
2023/03/25 09:22:39;;;;;;;5.13;2.10;;;;;;;6.55;100.00;95574.38;5086453;28;20837;-77
2023/03/25 09:25:07;;;;;;;2.60;1.13;;;;;;;6.57;100.00;95572.22;5063005;28;20467;-77
2023/03/25 09:27:34;;;;;;;1.10;0.93;;;;;;;6.76;100.00;95587.53;5082330;28;20505;-76
2023/03/25 09:30:02;;;;;;;2.00;1.20;;;;;;;6.73;100.00;95583.69;5089104;28;21049;-77
2023/03/25 09:32:29;;;;;;;5.50;1.80;;;;;;;6.83;100.00;95561.53;5086700;28;20423;-77
2023/03/25 09:34:55;;;;;;;5.30;1.60;;;;;;;6.83;100.00;95572.03;5079988;28;20562;-76
2023/03/25 09:37:22;;;;;;;6.10;2.20;;;;;;;6.80;100.00;95546.38;5081497;28;20506;-78
2023/03/25 09:39:49;;;;;;;5.10;2.53;;;;;;;6.84;100.00;95536.78;5088621;28;20827;-77
2023/03/25 09:42:37;;;;;;;7.47;2.47;;;;;;;7.29;100.00;95592.06;5087083;28;20777;-77
2023/03/25 09:45:42;;;;;;;4.37;1.33;;;;;;;7.67;100.00;95586.59;5094480;28;20779;-77
2023/03/25 09:48:14;;;;;;;3.03;1.30;;;;;;;7.52;100.00;95579.34;5082887;28;20451;-77
2023/03/25 09:50:43;;;;;;;1.97;1.10;;;;;;;7.45;100.00;95602.75;5079037;28;20493;-77
2023/03/25 09:53:09;;;;;;;2.37;1.20;;;;;;;7.32;100.00;95591.41;5093629;28;20733;-77
2023/03/25 09:55:43;;;;;;;6.90;2.03;;;;;;;7.52;100.00;95603.00;5076470;28;20530;-78
2023/03/25 09:58:40;;;;;;;3.17;1.10;;;;;;;7.71;100.00;95595.38;5055409;28;20432;-77
2023/03/25 10:01:17;;;;;;;3.13;2.20;;;;;;;7.83;100.00;95589.38;5082130;28;20864;-77
2023/03/25 10:04:00;;;;;;;3.30;1.90;;;;;;;7.80;100.00;95552.44;5088912;28;20530;-77
2023/03/25 10:06:31;;;;;;;5.37;1.40;;;;;;;8.15;100.00;95553.56;5058867;28;20534;-77
2023/03/25 10:09:25;;;;;;;2.77;2.17;;;;;;;8.32;100.00;95549.16;5080798;28;20411;-77
2023/03/25 10:12:11;;;;;;;4.50;1.70;;;;;;;8.06;100.00;95534.47;5078755;28;20490;-77
2023/03/25 10:15:09;;;;;;;2.10;1.37;;;;;;;8.32;100.00;95589.44;5051807;28;20436;-77
2023/03/25 10:17:55;;;;;;;2.10;1.40;;;;;;;7.57;100.00;95516.00;5102090;28;20436;-77
2023/03/25 10:20:45;;;;;;;5.60;2.00;;;;;;;8.08;100.00;95586.78;5066962;28;20466;-78
2023/03/25 10:23:36;;;;;;;2.33;1.40;;;;;;;7.93;100.00;95586.34;5093156;28;20480;-77
2023/03/25 10:26:44;;;;;;;4.70;2.40;;;;;;;7.94;100.00;95579.19;5093106;28;20412;-77
2023/03/25 10:29:26;;;;;;;2.50;2.30;;;;;;;8.02;100.00;95578.34;5075282;28;20427;-77
2023/03/25 10:31:59;;;;;;;1.83;1.30;;;;;;;8.07;100.00;95570.22;5068542;28;20450;-77
2023/03/25 10:34:36;;;;;;;6.33;1.27;;;;;;;8.05;100.00;95551.38;5081736;28;20700;-77
2023/03/25 10:37:09;;;;;;;2.40;1.00;;;;;;;8.29;100.00;95582.97;5083404;28;20839;-77
2023/03/25 10:39:38;;;;;;;1.43;1.17;;;;;;;8.10;100.00;95548.50;5088428;28;20835;-77
2023/03/25 10:42:30;;;;;;;7.27;2.60;;;;;;;8.67;100.00;95573.94;5093842;28;20428;-77
2023/03/25 10:44:57;;;;;;;6.70;1.50;;;;;;;8.94;100.00;95569.81;5071359;28;20411;-78
2023/03/25 10:47:30;;;;;;;3.37;1.63;;;;;;;9.10;100.00;95575.19;5092952;28;20459;-77
2023/03/25 10:49:58;;;;;;;3.87;1.60;;;;;;;8.98;100.00;95552.25;5082752;28;20991;-77
2023/03/25 10:52:25;;;;;;;5.63;2.00;;;;;;;8.93;100.00;95534.03;5061281;28;20435;-77
2023/03/25 10:54:55;;;;;;;6.40;1.30;;;;;;;9.00;100.00;95570.38;5084246;28;20435;-77
2023/03/25 10:57:27;;;;;;;3.20;1.70;;;;;;;8.87;100.00;95533.50;5071340;28;20423;-77
2023/03/25 11:00:05;;;;;;;3.67;1.20;;;;;;;8.98;100.00;95540.94;5074934;28;20439;-77
2023/03/25 11:02:32;;;;;;;1.53;0.80;;;;;;;8.66;100.00;95532.88;5051058;28;20885;-77
2023/03/25 11:05:03;;;;;;;3.23;1.67;;;;;;;8.97;100.00;95549.97;5079366;28;20450;-78
2023/03/25 11:07:40;;;;;;;2.53;1.20;;;;;;;8.90;100.00;95510.97;5092045;28;20466;-77
2023/03/25 11:10:14;;;;;;;3.27;2.17;;;;;;;9.24;100.00;95525.47;5087772;28;20796;-76
2023/03/25 11:12:44;;;;;;;2.27;1.80;;;;;;;9.47;100.00;95515.09;5082275;28;20420;-76
2023/03/25 11:15:17;;;;;;;2.10;1.10;;;;;;;9.45;100.00;95498.84;5074850;28;21117;-76
2023/03/25 11:17:46;;;;;;;1.60;1.20;;;;;;;9.63;100.00;95494.03;5083569;28;20438;-76
2023/03/25 11:20:28;;;;;;;6.13;1.63;;;;;;;9.35;100.00;95496.72;5063348;28;20447;-77
2023/03/25 11:23:02;;;;;;;1.63;1.37;;;;;;;9.45;100.00;95514.69;5091959;28;20447;-77
2023/03/25 11:25:31;;;;;;;2.80;1.20;;;;;;;9.80;100.00;95498.97;5084472;28;20414;-76
2023/03/25 11:28:04;;;;;;;2.30;1.30;;;;;;;10.13;100.00;95511.78;5105211;28;20455;-77
2023/03/25 11:30:30;;;;;;;5.27;1.50;;;;;;;10.22;100.00;95472.03;5081501;28;20455;-77
2023/03/25 11:33:02;;;;;;;4.60;1.83;;;;;;;10.53;100.00;95508.94;5091658;28;20489;-78
2023/03/25 11:35:33;;;;;;;1.90;1.20;;;;;;;10.12;100.00;95480.44;5061450;28;20436;-77
2023/03/25 11:38:11;;;;;;;4.93;1.53;;;;;;;9.95;100.00;95473.66;5091519;28;20473;-78
2023/03/25 11:40:51;;;;;;;4.17;1.23;;;;;;;9.90;100.00;95503.75;5092141;28;21026;-76
2023/03/25 11:43:23;;;;;;;1.33;1.00;;;;;;;9.37;100.00;95482.09;5063659;28;20849;-77
2023/03/25 11:45:51;;;;;;;4.17;1.20;;;;;;;9.38;100.00;95520.56;5092228;28;20477;-76
2023/03/25 11:48:23;;;;;;;3.60;1.90;;;;;;;9.29;100.00;95512.03;5065106;28;20459;-77
2023/03/25 11:50:56;;;;;;;1.77;1.00;;;;;;;9.20;100.00;95508.75;5091864;28;20458;-77
2023/03/25 11:53:25;;;;;;;1.57;0.80;;;;;;;8.21;100.00;95488.28;5092250;28;20522;-77
2023/03/25 11:56:16;;;;;;;4.40;1.23;;;;;;;8.30;100.00;95481.78;5047576;28;20994;-77